Portada
METAR-TAF:

METAR-TAF

Aeroports :

Glasgow Municipal Airport

Glasgow, Kentucky, Estats Units d'Amèrica

latitud: 37-01-54N, longitud: 085-57-13W, altitud: 218 m

Observació

L'informe es va fer fa 14 minuts, a les 01:55 UTC
Vent 6 kt del Sud/Sud-Oest
Temperatura 22°C
Humitat 78%
Pressió 1016 hPa
Visibilitat: 16.1 km
Cel clar

METAR: KGLW 180155Z AUTO 20006KT 10SM CLR 22/18 A3000 RMK AO2 T02160179

Hora: 21:09 (02:09 UTC)


TAF: manca

Observacions i pronòstics meteorològics de més de 4000 aeroports (METAR i TAF).

Les estacions disponibles són els punts grocs i vermells al mapa.

Posi el ratolí al punt desitjat per veure el nom de l'estació.

Feu clic per veure les observacions i els pronòstics meteorològics.

Per canviar el mapa: feu clic els botons verds amb una creu de color negre per apropar; al botó verd amb un guió per allunyar la imatge; o en les fletxes verdes per a mapes adjacents.


METAR-TAF: